createdAt,value
2023-03-22T00:03:38.445Z,6.50
2023-03-22T00:09:02.238Z,6.65
2023-03-22T00:14:27.509Z,6.63
2023-03-22T00:19:54.436Z,7.20
2023-03-22T00:25:18.948Z,6.97
2023-03-22T00:30:44.780Z,6.75
2023-03-22T00:36:10.545Z,5.60
2023-03-22T00:41:34.306Z,6.75
2023-03-22T00:46:59.584Z,5.80
2023-03-22T00:52:23.437Z,6.82
2023-03-22T00:57:47.266Z,6.60
2023-03-22T01:03:14.290Z,6.90
2023-03-22T01:08:39.326Z,6.25
2023-03-22T01:14:03.830Z,6.90
2023-03-22T01:19:28.935Z,6.43
2023-03-22T01:24:53.086Z,6.53
2023-03-22T01:30:16.869Z,7.15
2023-03-22T01:35:42.188Z,6.50
2023-03-22T01:41:07.330Z,7.22
2023-03-22T01:46:34.563Z,7.75
2023-03-22T01:52:03.122Z,7.80
2023-03-22T01:57:37.592Z,7.70
2023-03-22T02:03:04.234Z,7.78
2023-03-22T02:08:34.757Z,9.18
2023-03-22T02:14:32.269Z,7.63
2023-03-22T02:20:55.685Z,7.38
2023-03-22T02:26:59.397Z,7.88
2023-03-22T02:33:10.785Z,7.30
2023-03-22T02:39:13.805Z,7.80
2023-03-22T02:44:43.178Z,7.60
2023-03-22T02:50:12.651Z,8.15
2023-03-22T02:55:44.479Z,8.32
2023-03-22T03:01:12.362Z,7.78
2023-03-22T03:06:39.935Z,7.13
2023-03-22T03:12:11.044Z,9.15
2023-03-22T03:17:48.675Z,7.77
2023-03-22T03:23:24.494Z,7.95
2023-03-22T03:28:54.800Z,6.72
2023-03-22T03:34:24.294Z,8.63
2023-03-22T03:39:52.196Z,8.40
2023-03-22T03:45:22.095Z,8.07
2023-03-22T03:50:46.750Z,8.77
2023-03-22T03:56:11.721Z,9.32
2023-03-22T04:01:50.675Z,10.07
2023-03-22T04:07:20.307Z,10.35
2023-03-22T04:12:44.498Z,9.90
2023-03-22T04:18:15.520Z,9.15
2023-03-22T04:23:41.083Z,10.63
2023-03-22T04:29:05.499Z,9.95
2023-03-22T04:34:32.629Z,10.27
2023-03-22T04:39:59.753Z,11.20
2023-03-22T04:45:35.014Z,11.30
2023-03-22T04:51:04.199Z,10.55
2023-03-22T04:56:33.868Z,10.85
2023-03-22T05:01:57.797Z,9.82
2023-03-22T05:07:25.681Z,11.32
2023-03-22T05:12:53.342Z,11.20
2023-03-22T05:18:26.324Z,11.80
2023-03-22T05:23:53.867Z,10.35
2023-03-22T05:29:17.718Z,10.10
2023-03-22T05:35:04.778Z,9.40
2023-03-22T05:40:35.715Z,10.00
2023-03-22T05:45:59.568Z,10.07
2023-03-22T05:51:34.007Z,10.15
2023-03-22T05:56:59.333Z,9.02
2023-03-22T06:02:23.845Z,7.53
2023-03-22T06:07:48.063Z,8.60
2023-03-22T06:13:14.920Z,8.20
2023-03-22T06:18:38.778Z,8.55
2023-03-22T06:24:07.842Z,9.05
2023-03-22T06:29:33.854Z,8.80
2023-03-22T06:35:03.561Z,7.18
2023-03-22T06:40:28.113Z,8.32
2023-03-22T06:45:53.669Z,9.27
2023-03-22T06:51:23.091Z,7.55
2023-03-22T06:56:46.984Z,8.25
2023-03-22T07:02:13.629Z,8.55
2023-03-22T07:07:42.263Z,7.80
2023-03-22T07:13:06.583Z,8.43
2023-03-22T07:18:32.878Z,8.07
2023-03-22T07:23:56.889Z,9.30
2023-03-22T07:29:23.998Z,8.32
2023-03-22T07:34:49.542Z,7.95
2023-03-22T07:40:15.689Z,8.02
2023-03-22T07:45:41.298Z,7.53
2023-03-22T07:51:25.007Z,8.15
2023-03-22T07:56:49.499Z,8.15
2023-03-22T08:02:13.434Z,7.07
2023-03-22T08:07:51.559Z,8.10
2023-03-22T08:13:15.513Z,6.90
2023-03-22T08:18:39.557Z,7.60
2023-03-22T08:24:06.352Z,6.68
2023-03-22T08:29:56.896Z,7.40
2023-03-22T08:35:21.056Z,6.38
2023-03-22T08:40:48.992Z,7.50
2023-03-22T08:46:16.973Z,7.30
2023-03-22T08:51:42.271Z,8.23
2023-03-22T08:57:14.343Z,7.07
2023-03-22T09:02:50.419Z,8.75
2023-03-22T09:08:19.084Z,8.25
2023-03-22T09:13:47.302Z,8.00
2023-03-22T09:19:11.513Z,8.00
2023-03-22T09:24:36.237Z,7.72
2023-03-22T09:30:02.482Z,7.10
2023-03-22T09:35:26.384Z,9.15
2023-03-22T09:41:00.801Z,7.93
2023-03-22T09:46:33.161Z,8.02
2023-03-22T09:51:57.492Z,7.30
2023-03-22T09:57:26.253Z,7.57
2023-03-22T10:03:03.389Z,7.75
2023-03-22T10:08:50.433Z,9.05
2023-03-22T10:14:27.818Z,8.90
2023-03-22T10:19:56.737Z,8.95
2023-03-22T10:25:25.387Z,9.90
2023-03-22T10:30:54.536Z,8.80
2023-03-22T10:36:24.320Z,8.38
2023-03-22T10:41:49.089Z,9.20
2023-03-22T10:47:13.285Z,9.90
2023-03-22T10:52:45.595Z,9.90
2023-03-22T10:58:17.147Z,8.80
2023-03-22T11:03:43.142Z,8.95
2023-03-22T11:09:16.700Z,9.57
2023-03-22T11:14:44.856Z,8.93
2023-03-22T11:20:16.684Z,9.70
2023-03-22T11:25:47.694Z,9.07
2023-03-22T11:31:13.220Z,10.05
2023-03-22T11:36:45.293Z,8.45
2023-03-22T11:42:19.944Z,9.00
2023-03-22T11:47:44.104Z,7.80
2023-03-22T11:53:12.519Z,8.35
2023-03-22T11:58:56.528Z,8.05
2023-03-22T12:04:26.758Z,8.20
2023-03-22T12:09:58.966Z,9.25
2023-03-22T12:15:29.078Z,7.13
2023-03-22T12:20:56.259Z,9.03
2023-03-22T12:26:26.075Z,10.00
2023-03-22T12:32:00.043Z,9.25
2023-03-22T12:37:29.278Z,9.82
2023-03-22T12:48:36.698Z,5.70
2023-03-22T12:54:02.223Z,4.82
2023-03-22T12:59:30.453Z,5.57
2023-03-22T13:04:57.830Z,6.25
2023-03-22T13:10:51.541Z,7.35
2023-03-22T13:16:20.172Z,5.88
2023-03-22T13:21:45.657Z,6.93
2023-03-22T13:27:12.034Z,6.93
2023-03-22T13:32:37.649Z,7.05
2023-03-22T13:38:04.870Z,7.10
2023-03-22T13:43:34.397Z,5.50
2023-03-22T13:49:18.253Z,5.37
2023-03-22T13:54:49.310Z,6.00
2023-03-22T14:00:35.410Z,7.43
2023-03-22T14:06:17.459Z,7.03
2023-03-22T14:11:48.761Z,7.10
2023-03-22T14:17:23.015Z,7.68
